createdAt,value
2018-05-27T00:00:35.662Z,6.73
2018-05-27T00:03:03.930Z,6.40
2018-05-27T00:05:32.256Z,6.23
2018-05-27T00:08:00.613Z,6.07
2018-05-27T00:10:28.925Z,6.43
2018-05-27T00:12:57.210Z,5.90
2018-05-27T00:15:25.537Z,6.40
2018-05-27T00:17:53.817Z,5.87
2018-05-27T00:20:22.120Z,6.23
2018-05-27T00:22:50.380Z,6.07
2018-05-27T00:25:18.712Z,6.10
2018-05-27T00:27:47.050Z,6.03
2018-05-27T00:30:16.492Z,6.00
2018-05-27T00:32:44.943Z,5.50
2018-05-27T00:35:13.368Z,5.90
2018-05-27T00:37:41.673Z,5.50
2018-05-27T00:40:09.950Z,5.53
2018-05-27T00:42:38.286Z,5.47
2018-05-27T00:45:06.701Z,5.70
2018-05-27T00:47:35.020Z,5.80
2018-05-27T00:50:03.333Z,5.73
2018-05-27T00:52:31.638Z,6.43
2018-05-27T00:54:59.951Z,5.60
2018-05-27T00:57:28.296Z,5.53
2018-05-27T00:59:56.627Z,5.60
2018-05-27T01:02:24.937Z,6.20
2018-05-27T01:04:53.254Z,5.80
2018-05-27T01:07:22.368Z,6.33
2018-05-27T01:09:50.668Z,5.97
2018-05-27T01:12:19.345Z,6.70
2018-05-27T01:14:47.647Z,7.43
2018-05-27T01:17:16.007Z,6.63
2018-05-27T01:19:44.541Z,6.87
2018-05-27T01:22:13.626Z,6.57
2018-05-27T01:24:42.785Z,5.40
2018-05-27T01:27:15.062Z,6.30
2018-05-27T01:29:43.382Z,5.67
2018-05-27T01:32:12.419Z,5.90
2018-05-27T01:34:40.710Z,5.87
2018-05-27T01:37:08.995Z,5.80
2018-05-27T01:39:37.289Z,5.50
2018-05-27T01:42:05.605Z,5.13
2018-05-27T01:44:34.664Z,5.70
2018-05-27T01:47:02.959Z,5.33
2018-05-27T01:49:32.030Z,5.07
2018-05-27T01:52:00.308Z,5.60
2018-05-27T01:54:28.625Z,5.60
2018-05-27T01:56:56.901Z,5.93
2018-05-27T01:59:25.205Z,5.50
2018-05-27T02:01:53.493Z,5.00
2018-05-27T02:04:21.769Z,6.03
2018-05-27T02:06:50.151Z,6.00
2018-05-27T02:09:18.450Z,5.33
2018-05-27T02:11:46.778Z,5.60
2018-05-27T02:14:15.111Z,5.80
2018-05-27T02:16:43.437Z,6.43
2018-05-27T02:19:11.743Z,6.27
2018-05-27T02:21:40.061Z,6.23
2018-05-27T02:24:09.116Z,6.40
2018-05-27T02:26:37.413Z,5.97
2018-05-27T02:29:05.731Z,6.23
2018-05-27T02:31:34.041Z,6.70
2018-05-27T02:34:02.367Z,6.50
2018-05-27T02:36:31.414Z,6.07
2018-05-27T02:38:59.719Z,6.40
2018-05-27T02:41:28.266Z,6.83
2018-05-27T02:43:56.550Z,6.80
2018-05-27T02:46:25.010Z,6.57
2018-05-27T02:48:53.339Z,6.30
2018-05-27T02:51:21.654Z,6.37
2018-05-27T02:53:50.718Z,6.10
2018-05-27T02:56:18.998Z,6.50
2018-05-27T02:58:47.305Z,6.27
2018-05-27T03:01:15.624Z,6.20
2018-05-27T03:03:43.900Z,6.13
2018-05-27T03:06:12.194Z,6.80
2018-05-27T03:08:40.504Z,6.07
2018-05-27T03:11:09.543Z,6.53
2018-05-27T03:13:37.885Z,6.10
2018-05-27T03:16:06.936Z,6.43
2018-05-27T03:18:35.221Z,6.63
2018-05-27T03:21:03.499Z,6.43
2018-05-27T03:23:31.816Z,6.43
2018-05-27T03:26:00.092Z,6.43
2018-05-27T03:28:28.748Z,5.93
2018-05-27T03:30:57.096Z,6.23
2018-05-27T03:33:25.411Z,6.30
2018-05-27T03:35:53.790Z,6.23
2018-05-27T03:38:22.096Z,6.73
2018-05-27T03:40:50.376Z,6.00
2018-05-27T03:43:18.683Z,6.13
2018-05-27T03:45:46.994Z,6.80
2018-05-27T03:48:15.281Z,6.73
2018-05-27T03:50:44.325Z,6.57
2018-05-27T03:53:12.641Z,6.17
2018-05-27T03:55:40.899Z,6.03
2018-05-27T03:58:09.191Z,6.27
2018-05-27T04:00:37.461Z,6.13
2018-05-27T04:03:08.951Z,5.83
2018-05-27T04:05:55.716Z,5.87
2018-05-27T04:08:35.755Z,5.97
2018-05-27T04:11:04.053Z,5.73
2018-05-27T04:13:32.935Z,6.37
2018-05-27T04:16:02.069Z,5.10
2018-05-27T04:18:31.368Z,5.90
2018-05-27T04:21:00.398Z,5.60
2018-05-27T04:23:28.754Z,4.80
2018-05-27T04:25:57.845Z,5.40
2018-05-27T04:28:26.965Z,5.13
2018-05-27T04:30:55.197Z,5.20
2018-05-27T04:33:23.544Z,5.40
2018-05-27T04:35:51.854Z,4.83
2018-05-27T04:38:20.157Z,5.80
2018-05-27T04:40:49.258Z,5.50
2018-05-27T04:43:17.590Z,5.50
2018-05-27T04:45:45.917Z,4.40
2018-05-27T04:48:14.191Z,5.10
2018-05-27T04:50:42.496Z,5.07
2018-05-27T04:53:10.930Z,5.07
2018-05-27T04:55:39.992Z,5.27
2018-05-27T04:58:08.270Z,5.70
2018-05-27T05:00:37.003Z,5.70
2018-05-27T05:03:06.052Z,5.60
2018-05-27T05:05:34.469Z,5.40
2018-05-27T05:08:02.781Z,5.53
2018-05-27T05:10:31.062Z,5.87
2018-05-27T05:12:59.419Z,5.90
2018-05-27T05:15:27.740Z,6.10
2018-05-27T05:17:56.047Z,6.93
2018-05-27T05:20:24.341Z,5.90
2018-05-27T05:22:53.405Z,6.80
2018-05-27T05:25:21.742Z,6.40
2018-05-27T05:27:50.029Z,6.13
2018-05-27T05:30:18.315Z,5.90
2018-05-27T05:32:46.604Z,5.60
2018-05-27T05:35:14.920Z,5.53
2018-05-27T05:37:43.979Z,5.10
2018-05-27T05:40:12.323Z,5.20
2018-05-27T05:42:40.931Z,4.80
2018-05-27T05:45:09.262Z,4.97
2018-05-27T05:47:38.667Z,5.10
2018-05-27T05:50:06.997Z,5.30
2018-05-27T05:52:35.304Z,5.03
2018-05-27T05:55:04.352Z,5.00
2018-05-27T05:57:32.678Z,5.40
2018-05-27T06:00:01.008Z,5.00
2018-05-27T06:02:29.356Z,5.00
2018-05-27T06:04:58.395Z,5.10
2018-05-27T06:07:26.717Z,4.90
2018-05-27T06:09:55.809Z,4.53
2018-05-27T06:12:24.889Z,5.50
2018-05-27T06:14:56.962Z,4.78
2018-05-27T06:17:25.263Z,4.95
2018-05-27T06:19:53.575Z,5.03
2018-05-27T06:22:22.016Z,4.93
2018-05-27T06:24:51.029Z,4.87
2018-05-27T06:27:19.401Z,4.80
2018-05-27T06:29:47.692Z,4.95
2018-05-27T06:32:16.041Z,4.90
2018-05-27T06:34:45.139Z,4.90
2018-05-27T06:37:14.204Z,5.05
2018-05-27T06:39:42.811Z,5.28
2018-05-27T06:42:11.873Z,5.30
2018-05-27T06:44:40.170Z,5.10
2018-05-27T06:47:08.440Z,5.10
2018-05-27T06:49:36.744Z,5.07
2018-05-27T06:52:05.797Z,5.70
2018-05-27T06:54:34.099Z,5.45
2018-05-27T06:57:02.338Z,5.68
2018-05-27T06:59:30.700Z,5.60
2018-05-27T07:01:59.005Z,5.68
2018-05-27T07:04:27.365Z,5.75
2018-05-27T07:06:56.366Z,5.28
2018-05-27T07:09:24.785Z,5.28
2018-05-27T07:11:53.138Z,5.47
2018-05-27T07:14:21.436Z,5.30
2018-05-27T07:16:49.715Z,5.20
2018-05-27T07:19:18.012Z,5.53
2018-05-27T07:21:47.360Z,5.62
2018-05-27T07:24:15.647Z,5.18
2018-05-27T07:26:43.984Z,5.93
2018-05-27T07:29:12.297Z,6.30
2018-05-27T07:31:40.593Z,5.50
2018-05-27T07:34:08.873Z,5.87
2018-05-27T07:36:37.151Z,5.82
2018-05-27T07:39:06.172Z,5.30
2018-05-27T07:41:35.233Z,6.07
2018-05-27T07:44:03.521Z,5.72
2018-05-27T07:46:31.862Z,5.05
2018-05-27T07:49:00.173Z,5.53
2018-05-27T07:51:32.251Z,4.80
2018-05-27T07:54:00.540Z,5.45
2018-05-27T07:56:29.689Z,5.70
2018-05-27T07:58:57.969Z,5.43
2018-05-27T08:01:26.261Z,6.03
2018-05-27T08:03:54.581Z,5.55
2018-05-27T08:06:23.645Z,5.93
2018-05-27T08:08:52.343Z,5.57
2018-05-27T08:11:20.684Z,5.62
2018-05-27T08:13:48.970Z,5.95
2018-05-27T08:16:17.259Z,5.75
2018-05-27T08:18:45.552Z,5.50
2018-05-27T08:21:13.880Z,5.85
2018-05-27T08:23:42.464Z,6.10
2018-05-27T08:26:10.770Z,6.00
2018-05-27T08:28:39.138Z,5.30
2018-05-27T08:31:11.180Z,5.93
2018-05-27T08:33:39.490Z,5.93
2018-05-27T08:36:07.823Z,5.55
2018-05-27T08:38:36.191Z,5.82
2018-05-27T08:41:05.220Z,5.82
2018-05-27T08:43:33.554Z,5.80
2018-05-27T08:46:01.811Z,6.18
2018-05-27T08:48:30.125Z,5.75
2018-05-27T08:50:58.413Z,5.05
2018-05-27T08:53:26.771Z,5.90
2018-05-27T08:55:55.495Z,6.30
2018-05-27T08:58:23.849Z,6.05
2018-05-27T09:00:52.141Z,6.30
2018-05-27T09:03:20.455Z,6.30
2018-05-27T09:05:48.754Z,6.55
2018-05-27T09:08:17.117Z,6.53
2018-05-27T09:10:45.408Z,6.72
2018-05-27T09:13:13.763Z,6.15
2018-05-27T09:15:42.049Z,5.22
2018-05-27T09:18:10.381Z,5.18
2018-05-27T09:20:38.682Z,5.18
2018-05-27T09:23:07.007Z,4.90
2018-05-27T09:25:36.076Z,5.22
2018-05-27T09:28:04.357Z,5.72
2018-05-27T09:30:32.793Z,5.18
2018-05-27T09:33:01.183Z,5.60
2018-05-27T09:35:29.472Z,5.40
2018-05-27T09:37:58.070Z,5.53
2018-05-27T09:40:26.459Z,5.53
2018-05-27T09:42:54.738Z,5.82
2018-05-27T09:45:23.074Z,5.62
2018-05-27T09:47:52.096Z,5.55
2018-05-27T09:50:20.415Z,5.93
2018-05-27T09:52:49.520Z,5.18
2018-05-27T09:55:17.839Z,5.65
2018-05-27T09:57:46.202Z,5.40
2018-05-27T10:00:14.532Z,5.07
2018-05-27T10:02:43.000Z,4.90
2018-05-27T10:05:11.321Z,5.30
2018-05-27T10:07:39.599Z,4.70
2018-05-27T10:10:07.906Z,5.20
2018-05-27T10:12:36.194Z,5.22
2018-05-27T10:15:04.531Z,4.95
2018-05-27T10:17:32.846Z,5.37
2018-05-27T10:20:01.532Z,4.70
2018-05-27T10:22:29.813Z,4.97
2018-05-27T10:24:58.901Z,4.82
2018-05-27T10:27:27.198Z,5.30
2018-05-27T10:29:55.614Z,4.75
2018-05-27T10:32:24.703Z,4.70
2018-05-27T10:34:53.803Z,4.60
2018-05-27T10:37:22.096Z,4.70
2018-05-27T10:39:50.398Z,5.18
2018-05-27T10:42:18.708Z,4.82
2018-05-27T10:44:47.006Z,4.65
2018-05-27T10:47:15.335Z,5.87
2018-05-27T10:49:43.660Z,4.65
2018-05-27T10:52:12.723Z,4.90
2018-05-27T10:54:40.997Z,4.72
2018-05-27T10:57:09.295Z,4.80
2018-05-27T10:59:37.643Z,4.80
2018-05-27T11:02:06.371Z,4.78
2018-05-27T11:04:35.422Z,4.87
2018-05-27T11:07:04.061Z,4.82
2018-05-27T11:09:33.145Z,4.75
2018-05-27T11:12:02.218Z,5.07
2018-05-27T11:14:30.484Z,5.00
2018-05-27T11:16:58.853Z,4.60
2018-05-27T11:19:27.131Z,4.87
2018-05-27T11:21:55.459Z,5.10
2018-05-27T11:24:24.593Z,4.40
2018-05-27T11:26:52.897Z,5.17
2018-05-27T11:29:21.236Z,4.87
2018-05-27T11:31:49.580Z,6.00
2018-05-27T11:34:17.932Z,5.23
2018-05-27T11:36:46.236Z,5.80
2018-05-27T11:39:15.329Z,6.03
2018-05-27T11:41:43.647Z,5.33
2018-05-27T11:44:11.981Z,5.80
2018-05-27T11:46:40.284Z,5.60
2018-05-27T11:49:13.425Z,5.57
2018-05-27T11:51:41.708Z,5.77
2018-05-27T11:54:10.430Z,5.80
2018-05-27T11:56:38.676Z,5.83
2018-05-27T11:59:07.033Z,5.27
2018-05-27T12:01:35.409Z,6.23
2018-05-27T12:04:03.770Z,5.40
2018-05-27T12:06:32.036Z,5.70
2018-05-27T12:09:00.372Z,5.40
2018-05-27T12:11:28.687Z,5.37
2018-05-27T12:13:57.757Z,5.20
2018-05-27T12:16:26.035Z,5.47
2018-05-27T12:18:54.353Z,5.50
2018-05-27T12:21:22.660Z,5.73
2018-05-27T12:23:50.981Z,5.07
2018-05-27T12:26:20.020Z,5.43
2018-05-27T12:28:48.345Z,5.70
2018-05-27T12:31:16.644Z,5.80
2018-05-27T12:33:45.791Z,5.70
2018-05-27T12:36:14.115Z,5.57
2018-05-27T12:38:43.171Z,5.50
2018-05-27T12:41:11.832Z,5.53
2018-05-27T12:43:40.108Z,5.60
2018-05-27T12:46:08.418Z,5.53
2018-05-27T12:48:36.748Z,5.53
2018-05-27T12:51:05.107Z,5.37
2018-05-27T12:53:33.430Z,5.77
2018-05-27T12:56:01.725Z,5.60
2018-05-27T12:58:30.179Z,5.23
2018-05-27T13:00:58.499Z,5.57
2018-05-27T13:03:26.896Z,5.97
2018-05-27T13:05:56.015Z,5.53
2018-05-27T13:08:25.065Z,5.50
2018-05-27T13:10:53.433Z,4.90
2018-05-27T13:13:21.774Z,5.20
2018-05-27T13:15:50.106Z,5.23
2018-05-27T13:18:18.609Z,5.37
2018-05-27T13:20:47.686Z,5.80
2018-05-27T13:23:16.137Z,5.10
2018-05-27T13:25:44.427Z,5.50
2018-05-27T13:28:12.807Z,5.93
2018-05-27T13:30:41.117Z,5.27
2018-05-27T13:33:10.337Z,5.27
2018-05-27T13:35:38.775Z,5.40
2018-05-27T13:38:07.091Z,5.10
2018-05-27T13:40:35.465Z,5.37
2018-05-27T13:43:03.773Z,5.57
2018-05-27T13:45:32.196Z,5.70
2018-05-27T13:48:00.541Z,5.40
2018-05-27T13:50:28.891Z,5.50
2018-05-27T13:52:57.195Z,5.43
2018-05-27T13:55:25.458Z,5.60
2018-05-27T13:57:53.895Z,5.47
2018-05-27T14:00:22.164Z,5.43
2018-05-27T14:02:50.537Z,5.30
2018-05-27T14:05:18.985Z,5.70
2018-05-27T14:07:47.343Z,5.47
2018-05-27T14:10:15.688Z,5.57
2018-05-27T14:12:44.781Z,5.60
2018-05-27T14:15:13.059Z,5.77
2018-05-27T14:17:41.407Z,5.93
2018-05-27T14:20:09.904Z,6.00
2018-05-27T14:22:38.323Z,5.60
2018-05-27T14:25:07.405Z,5.77
2018-05-27T14:27:36.490Z,6.00
2018-05-27T14:30:04.797Z,6.10
2018-05-27T14:32:33.892Z,6.03
2018-05-27T14:35:02.972Z,6.10
2018-05-27T14:37:32.104Z,5.97
2018-05-27T14:40:00.482Z,5.87
2018-05-27T14:42:28.851Z,5.60
2018-05-27T14:44:57.200Z,6.00
2018-05-27T14:47:25.730Z,5.17
2018-05-27T14:49:54.019Z,5.53
2018-05-27T14:52:22.320Z,6.00
2018-05-27T14:54:50.656Z,6.03
2018-05-27T14:57:18.980Z,5.80
2018-05-27T14:59:47.297Z,5.57
2018-05-27T15:02:15.588Z,6.00
2018-05-27T15:04:43.919Z,5.77
2018-05-27T15:07:12.228Z,5.77
2018-05-27T15:09:40.567Z,6.00
2018-05-27T15:12:08.927Z,6.37
2018-05-27T15:14:37.995Z,6.07
2018-05-27T15:17:06.377Z,5.60
2018-05-27T15:19:34.825Z,5.87
2018-05-27T15:22:03.175Z,6.03
2018-05-27T15:24:31.521Z,5.90
2018-05-27T15:26:59.927Z,5.67
2018-05-27T15:29:28.302Z,5.70
2018-05-27T15:31:56.798Z,5.83
2018-05-27T15:34:25.260Z,6.50
2018-05-27T15:36:53.570Z,5.77
2018-05-27T15:39:21.981Z,6.20
2018-05-27T15:41:50.271Z,5.63
2018-05-27T15:44:18.622Z,5.20
2018-05-27T15:46:47.729Z,5.20
2018-05-27T15:49:20.074Z,5.03
2018-05-27T15:51:48.457Z,4.70
2018-05-27T15:54:16.894Z,4.60
2018-05-27T15:56:45.231Z,5.20
2018-05-27T15:59:13.616Z,4.53
2018-05-27T16:01:41.957Z,4.40
2018-05-27T16:04:10.322Z,4.87
2018-05-27T16:06:38.648Z,4.70
2018-05-27T16:09:07.769Z,4.60
2018-05-27T16:11:36.132Z,6.50
2018-05-27T16:14:04.557Z,6.70
2018-05-27T16:16:32.953Z,6.97
2018-05-27T16:19:01.245Z,6.10
2018-05-27T16:21:29.675Z,5.60
2018-05-27T16:23:57.963Z,5.77
2018-05-27T16:26:26.328Z,6.37
2018-05-27T16:28:54.642Z,5.73
2018-05-27T16:31:22.960Z,5.10
2018-05-27T16:33:51.314Z,6.57
2018-05-27T16:36:19.686Z,7.23
2018-05-27T16:38:47.989Z,7.27
2018-05-27T16:41:17.126Z,5.90
2018-05-27T16:43:45.482Z,5.53
2018-05-27T16:46:13.813Z,6.87
2018-05-27T16:48:42.093Z,6.70
2018-05-27T16:51:10.463Z,5.73
2018-05-27T16:53:38.788Z,5.70
2018-05-27T16:56:07.149Z,5.43
2018-05-27T16:58:36.214Z,5.27
2018-05-27T17:01:04.670Z,5.60
2018-05-27T17:03:33.055Z,5.83
2018-05-27T17:06:01.367Z,5.47
2018-05-27T17:08:29.673Z,5.40
2018-05-27T17:10:58.722Z,5.70
2018-05-27T17:13:27.027Z,5.10
2018-05-27T17:15:56.324Z,5.00
2018-05-27T17:18:24.660Z,5.37
2018-05-27T17:20:52.952Z,6.57
2018-05-27T17:23:21.350Z,6.10
2018-05-27T17:25:49.653Z,6.77
2018-05-27T17:28:18.115Z,6.50
2018-05-27T17:30:46.454Z,6.30
2018-05-27T17:33:14.784Z,6.40
2018-05-27T17:35:43.932Z,5.87
2018-05-27T17:38:12.346Z,6.60
2018-05-27T17:40:40.637Z,6.77
2018-05-27T17:43:09.690Z,7.13
2018-05-27T17:45:38.082Z,7.00
2018-05-27T17:48:14.345Z,7.03
2018-05-27T17:50:42.684Z,7.00
2018-05-27T17:53:10.955Z,7.70
2018-05-27T17:55:39.333Z,7.20
2018-05-27T17:58:07.703Z,7.10
2018-05-27T18:00:36.937Z,7.40
2018-05-27T18:03:05.263Z,6.73
2018-05-27T18:05:34.545Z,7.50
2018-05-27T18:08:02.903Z,7.20
2018-05-27T18:10:31.194Z,7.47
2018-05-27T18:12:59.494Z,7.57
2018-05-27T18:15:28.562Z,7.80
2018-05-27T18:17:56.856Z,7.17
2018-05-27T18:20:25.300Z,7.73
2018-05-27T18:22:53.686Z,7.97
2018-05-27T18:25:22.047Z,8.00
2018-05-27T18:27:50.344Z,7.60
2018-05-27T18:30:18.701Z,8.03
2018-05-27T18:32:47.033Z,7.80
2018-05-27T18:35:15.352Z,8.23
2018-05-27T18:37:43.649Z,10.67
2018-05-27T18:40:11.966Z,9.13
2018-05-27T18:42:40.413Z,8.33
2018-05-27T18:45:08.738Z,9.60
2018-05-27T18:47:37.838Z,9.10
2018-05-27T18:50:06.180Z,8.83
2018-05-27T18:52:34.518Z,8.93
2018-05-27T18:55:02.831Z,10.03
2018-05-27T18:57:31.203Z,8.90
2018-05-27T18:59:59.546Z,9.20
2018-05-27T19:02:27.935Z,9.43
2018-05-27T19:04:56.291Z,9.97
2018-05-27T19:07:25.433Z,9.80
2018-05-27T19:09:53.770Z,9.67
2018-05-27T19:12:22.092Z,10.43
2018-05-27T19:14:50.437Z,9.77
2018-05-27T19:17:18.773Z,10.40
2018-05-27T19:19:47.233Z,10.43
2018-05-27T19:22:15.651Z,9.97
2018-05-27T19:24:44.724Z,9.93
2018-05-27T19:27:13.134Z,11.30
2018-05-27T19:29:42.330Z,10.40
2018-05-27T19:32:11.594Z,10.53
2018-05-27T19:34:39.854Z,11.30
2018-05-27T19:37:08.182Z,10.97
2018-05-27T19:39:37.308Z,12.80
2018-05-27T19:42:05.613Z,11.63
2018-05-27T19:44:33.957Z,16.53
2018-05-27T19:47:02.394Z,16.03
2018-05-27T19:49:30.820Z,15.80
2018-05-27T19:51:59.170Z,16.83
2018-05-27T19:54:28.462Z,17.87
2018-05-27T19:56:56.768Z,19.27
2018-05-27T19:59:25.120Z,17.03
2018-05-27T20:01:53.455Z,16.40
2018-05-27T20:04:21.761Z,15.17
2018-05-27T20:06:50.206Z,15.50
2018-05-27T20:09:18.630Z,15.67
2018-05-27T20:11:47.020Z,15.80
2018-05-27T20:14:15.412Z,15.13
2018-05-27T20:16:44.770Z,15.50
2018-05-27T20:19:13.093Z,15.17
2018-05-27T20:21:42.258Z,14.63
2018-05-27T20:24:10.744Z,15.03
2018-05-27T20:26:39.206Z,14.50
2018-05-27T20:29:07.528Z,14.73
2018-05-27T20:31:36.683Z,14.23
2018-05-27T20:34:05.020Z,14.17
2018-05-27T20:36:33.443Z,14.17
2018-05-27T20:39:01.745Z,13.80
2018-05-27T20:41:30.233Z,13.97
2018-05-27T20:43:58.551Z,13.73
2018-05-27T20:46:26.951Z,13.80
2018-05-27T20:48:55.438Z,13.97
2018-05-27T20:51:23.880Z,14.23
2018-05-27T20:53:52.283Z,14.67
2018-05-27T20:56:20.678Z,14.87
2018-05-27T20:58:49.189Z,15.17
2018-05-27T21:01:17.554Z,18.67
2018-05-27T21:03:45.824Z,21.27
2018-05-27T21:06:14.300Z,26.80
2018-05-27T21:08:42.605Z,22.73
2018-05-27T21:11:10.928Z,18.40
2018-05-27T21:13:39.234Z,15.70
2018-05-27T21:16:07.575Z,15.80
2018-05-27T21:18:35.878Z,15.60
2018-05-27T21:21:04.318Z,14.80
2018-05-27T21:23:33.574Z,14.77
2018-05-27T21:26:01.940Z,15.03
2018-05-27T21:28:30.402Z,14.97
2018-05-27T21:30:58.724Z,15.83
2018-05-27T21:33:27.856Z,15.07
2018-05-27T21:35:56.218Z,15.40
2018-05-27T21:38:25.366Z,14.60
2018-05-27T21:40:53.683Z,14.50
2018-05-27T21:43:22.033Z,14.67
2018-05-27T21:45:50.411Z,15.73
2018-05-27T21:48:18.925Z,15.90
2018-05-27T21:50:51.113Z,15.77
2018-05-27T21:53:20.354Z,15.70
2018-05-27T21:55:48.679Z,17.03
2018-05-27T21:58:16.995Z,16.23
2018-05-27T22:00:45.287Z,16.43
2018-05-27T22:03:13.574Z,16.10
2018-05-27T22:05:41.916Z,17.00
2018-05-27T22:08:10.216Z,16.07
2018-05-27T22:10:38.532Z,17.03
2018-05-27T22:13:06.861Z,17.00
2018-05-27T22:15:35.168Z,17.03
2018-05-27T22:18:03.484Z,16.60
2018-05-27T22:20:32.584Z,16.93
2018-05-27T22:23:00.859Z,17.77
2018-05-27T22:25:29.967Z,17.27
2018-05-27T22:27:59.007Z,18.27
2018-05-27T22:30:27.305Z,17.67
2018-05-27T22:32:55.628Z,18.87
2018-05-27T22:35:23.941Z,19.10
2018-05-27T22:37:52.985Z,19.40
2018-05-27T22:40:22.095Z,19.73
2018-05-27T22:42:51.187Z,19.90
2018-05-27T22:45:19.549Z,19.27
2018-05-27T22:47:48.695Z,19.33
2018-05-27T22:50:17.020Z,19.47
2018-05-27T22:52:46.141Z,20.67
2018-05-27T22:55:14.500Z,20.77
2018-05-27T22:57:43.658Z,20.90
2018-05-27T23:00:11.978Z,20.70
2018-05-27T23:02:41.135Z,20.30
2018-05-27T23:05:13.328Z,21.07
2018-05-27T23:07:41.642Z,21.13
2018-05-27T23:10:10.036Z,21.43
2018-05-27T23:12:38.336Z,21.27
2018-05-27T23:15:06.667Z,22.13
2018-05-27T23:17:34.994Z,22.00
2018-05-27T23:20:03.275Z,22.50
2018-05-27T23:22:31.613Z,22.80
2018-05-27T23:24:59.921Z,22.57
2018-05-27T23:27:28.354Z,22.77
2018-05-27T23:29:56.677Z,21.57
2018-05-27T23:32:24.976Z,22.37
2018-05-27T23:34:53.288Z,23.20
2018-05-27T23:37:22.349Z,23.73
2018-05-27T23:39:50.650Z,23.10
2018-05-27T23:42:19.756Z,22.07
2018-05-27T23:44:48.808Z,22.33
2018-05-27T23:47:17.126Z,22.63
2018-05-27T23:49:46.170Z,23.03
2018-05-27T23:52:14.488Z,21.77
2018-05-27T23:54:42.831Z,22.93
2018-05-27T23:57:11.105Z,22.93
2018-05-27T23:59:39.403Z,20.70
